Bloomville, Wisconsin
Current Conditions -  °F | °C
As of 2:15 PM on Wednesday 28 Jan 2015 (Local Time) from KRRL Reporting Station
Clear Clear  
Wind Chill: 21°   Ceiling: Unl
Heat Index: 30°   Visibility: 10mi
Dew Point: 21°   Wind: 9mph
Humidity: 70%   Direction: 160°SSE
Pressure: 29.95"   Gusts: NA
Location:  45.3595°N, 89.45°W
Report Text: KRRL 282015Z AUTO 16008KT 10SM CLR M01/M06 A2995 RMK AO2 T10121060
Loading
Personal Weather Stations






























Interactive Weather Map New forecast layout! Learn more

10-Day Weather Forecast

Advertisements
Track Severe Weather on mobile